Time;durP1;ratioP1;P1;durP2;ratioP2;P2;SDS_P1;SDS_P2;PMS_P1;PMS_P2;Temp;Humidity;BMP_temperature;BMP_pressure;BME280_temperature;BME280_humidity;BME280_pressure;Samples;Min_cycle;Max_cycle;Signal;HPM_P1;HPM_P2
2024/01/25 05:40:11;;;;;;;9.45;2.75;;;7.30;99.90;;;;;;7614194;19;20371;-72
2024/01/25 05:42:43;;;;;;;12.32;2.83;;;7.40;99.90;;;;;;7613141;19;20504;-72
2024/01/25 05:45:19;;;;;;;9.30;2.78;;;7.40;99.90;;;;;;7626956;19;20022;-72
2024/01/25 05:47:51;;;;;;;18.90;3.20;;;7.50;99.90;;;;;;7609280;19;20352;-72
2024/01/25 05:50:24;;;;;;;16.48;2.75;;;7.60;99.90;;;;;;7627723;19;20021;-72
2024/01/25 05:52:56;;;;;;;11.45;2.90;;;7.60;99.90;;;;;;7618912;19;20029;-73
2024/01/25 05:55:28;;;;;;;11.30;2.83;;;7.70;99.90;;;;;;7618849;19;20014;-72
2024/01/25 05:58:02;;;;;;;13.65;3.35;;;7.70;99.90;;;;;;7611257;19;22078;-72
2024/01/25 06:00:34;;;;;;;13.90;2.80;;;7.70;99.90;;;;;;7604807;19;20022;-74
2024/01/25 06:03:07;;;;;;;16.00;2.90;;;7.80;99.90;;;;;;7618133;19;20368;-73
2024/01/25 06:05:40;;;;;;;14.23;2.70;;;7.80;99.90;;;;;;7623763;19;20029;-72
2024/01/25 06:08:12;;;;;;;19.58;3.58;;;7.80;99.90;;;;;;7614418;19;20081;-73
2024/01/25 06:10:44;;;;;;;13.02;2.97;;;7.80;99.90;;;;;;7614423;19;20646;-73
2024/01/25 06:13:17;;;;;;;11.40;2.80;;;7.80;99.90;;;;;;7605557;19;20041;-73
2024/01/25 06:15:50;;;;;;;12.25;2.85;;;7.80;99.90;;;;;;7606864;19;20551;-73
2024/01/25 06:18:22;;;;;;;13.55;3.22;;;7.80;99.90;;;;;;7591354;19;20840;-73
2024/01/25 06:20:55;;;;;;;17.27;3.33;;;7.80;99.90;;;;;;7606419;19;21067;-72
2024/01/25 06:23:28;;;;;;;11.20;2.53;;;7.80;99.90;;;;;;7594706;19;20022;-73
2024/01/25 06:26:00;;;;;;;14.95;3.53;;;7.80;99.90;;;;;;7593107;19;20112;-73
2024/01/25 06:28:33;;;;;;;9.13;2.42;;;7.70;99.90;;;;;;7612858;19;20014;-72
2024/01/25 06:31:05;;;;;;;21.13;2.72;;;7.70;99.90;;;;;;7598712;19;20058;-73
2024/01/25 06:33:38;;;;;;;17.67;3.42;;;7.70;99.90;;;;;;7605394;19;20110;-73
2024/01/25 06:36:11;;;;;;;21.02;3.72;;;7.70;99.90;;;;;;7596742;19;20820;-73
2024/01/25 06:38:43;;;;;;;16.77;3.20;;;7.80;99.90;;;;;;7616261;19;20414;-73
2024/01/25 06:41:16;;;;;;;15.18;2.85;;;7.80;99.90;;;;;;7627426;19;20939;-72
2024/01/25 06:43:49;;;;;;;18.38;2.88;;;7.80;99.90;;;;;;7616015;19;20051;-73
2024/01/25 06:46:21;;;;;;;20.17;3.65;;;7.80;99.90;;;;;;7618942;19;20655;-73
2024/01/25 06:48:54;;;;;;;18.20;4.82;;;7.80;99.90;;;;;;7625724;19;20015;-73
2024/01/25 06:51:27;;;;;;;16.87;4.07;;;7.70;99.90;;;;;;7600349;19;20011;-72
2024/01/25 06:53:59;;;;;;;15.40;3.55;;;7.70;99.90;;;;;;7595634;19;21429;-72
2024/01/25 06:56:31;;;;;;;15.20;3.92;;;7.70;99.90;;;;;;7597432;19;20023;-72
2024/01/25 06:59:04;;;;;;;13.65;3.38;;;7.70;99.90;;;;;;7587993;19;20099;-72
2024/01/25 07:01:36;;;;;;;19.02;3.58;;;7.70;99.90;;;;;;7603822;19;20019;-72
2024/01/25 07:04:09;;;;;;;25.73;3.80;;;7.70;99.90;;;;;;7597869;19;20025;-72
2024/01/25 07:06:42;;;;;;;14.90;4.35;;;7.70;99.90;;;;;;7596740;19;20022;-72
2024/01/25 07:09:14;;;;;;;20.95;3.88;;;7.60;99.90;;;;;;7592158;19;20015;-73
2024/01/25 07:11:47;;;;;;;16.63;3.17;;;7.60;99.90;;;;;;7601529;19;21444;-73
2024/01/25 07:14:19;;;;;;;15.75;3.50;;;7.50;99.90;;;;;;7575756;19;21310;-73
2024/01/25 07:16:51;;;;;;;17.38;4.65;;;7.50;99.90;;;;;;7596156;19;20019;-72
2024/01/25 07:19:23;;;;;;;22.67;4.18;;;7.50;99.90;;;;;;7575785;19;29856;-74
2024/01/25 07:21:56;;;;;;;21.88;4.00;;;7.50;99.90;;;;;;7594044;19;20018;-73
2024/01/25 07:24:28;;;;;;;22.58;3.55;;;7.40;99.90;;;;;;7596613;19;20463;-72
2024/01/25 07:27:01;;;;;;;15.43;4.00;;;7.40;99.90;;;;;;7592884;19;20024;-73
2024/01/25 07:29:33;;;;;;;16.58;4.10;;;7.30;99.90;;;;;;7594018;19;20286;-73
2024/01/25 07:32:07;;;;;;;21.80;4.87;;;7.40;99.90;;;;;;7585872;19;20014;-73
2024/01/25 07:34:39;;;;;;;16.65;4.85;;;7.40;99.90;;;;;;7598074;19;21012;-74
2024/01/25 07:37:12;;;;;;;18.67;4.18;;;7.40;99.90;;;;;;7590343;19;20035;-74
2024/01/25 07:39:45;;;;;;;25.83;4.90;;;7.40;99.90;;;;;;7592191;19;20625;-73
2024/01/25 07:42:18;;;;;;;23.30;4.80;;;7.40;99.90;;;;;;7594555;19;20014;-74
2024/01/25 07:44:51;;;;;;;23.20;4.27;;;7.40;99.90;;;;;;7596396;19;20017;-74
2024/01/25 07:47:23;;;;;;;15.10;3.77;;;7.40;99.90;;;;;;7590512;19;20062;-73
2024/01/25 07:49:56;;;;;;;24.23;3.70;;;7.50;99.90;;;;;;7585809;19;20080;-75
2024/01/25 07:52:28;;;;;;;23.38;4.47;;;7.50;99.90;;;;;;7594790;19;20029;-73
2024/01/25 07:55:00;;;;;;;19.55;4.43;;;7.50;99.90;;;;;;7589717;19;20040;-74
2024/01/25 07:57:36;;;;;;;18.30;3.83;;;7.50;99.90;;;;;;7583027;19;20026;-73
2024/01/25 08:00:09;;;;;;;16.58;3.28;;;7.50;99.90;;;;;;7577272;19;20034;-72
2024/01/25 08:02:44;;;;;;;20.55;3.75;;;7.50;99.90;;;;;;7598919;19;20021;-73
2024/01/25 08:05:17;;;;;;;19.13;3.65;;;7.50;99.90;;;;;;7578443;19;20022;-73
2024/01/25 08:07:50;;;;;;;21.58;3.75;;;7.50;99.90;;;;;;7583907;19;20010;-73
2024/01/25 08:10:23;;;;;;;15.80;4.07;;;7.60;99.90;;;;;;7563584;19;20175;-73
2024/01/25 08:12:55;;;;;;;13.93;3.43;;;7.60;99.90;;;;;;7590920;19;20010;-73
2024/01/25 08:15:38;;;;;;;17.77;4.07;;;7.60;99.90;;;;;;7594807;19;20518;-74
2024/01/25 08:18:11;;;;;;;16.27;3.60;;;7.60;99.90;;;;;;7580661;19;21258;-74
2024/01/25 08:20:43;;;;;;;19.60;3.80;;;7.60;99.90;;;;;;7581968;19;20026;-73
2024/01/25 08:23:16;;;;;;;18.17;3.47;;;7.70;99.90;;;;;;7591052;19;21494;-73
2024/01/25 08:25:48;;;;;;;17.20;3.58;;;7.80;99.90;;;;;;7589507;19;20014;-73
2024/01/25 08:28:21;;;;;;;14.25;3.85;;;7.80;99.90;;;;;;7590862;19;20013;-73
2024/01/25 08:30:54;;;;;;;19.25;4.00;;;7.80;99.90;;;;;;7585702;19;20103;-73
2024/01/25 08:33:26;;;;;;;21.67;4.65;;;7.80;99.90;;;;;;7582653;19;20015;-73
2024/01/25 08:35:58;;;;;;;20.20;3.95;;;7.90;99.90;;;;;;7590791;19;20052;-72
2024/01/25 08:38:31;;;;;;;23.23;4.27;;;7.90;99.90;;;;;;7588175;19;20635;-74
2024/01/25 08:41:04;;;;;;;17.20;3.83;;;8.00;99.90;;;;;;7579855;19;20021;-72
2024/01/25 08:43:56;;;;;;;17.58;4.13;;;8.00;99.90;;;;;;7588270;19;20010;-73
2024/01/25 08:46:47;;;;;;;21.25;4.07;;;8.10;99.90;;;;;;7571507;19;20972;-73
2024/01/25 08:49:38;;;;;;;29.77;5.15;;;8.10;99.90;;;;;;7590442;19;20101;-74
2024/01/25 08:52:10;;;;;;;23.63;4.13;;;8.10;99.90;;;;;;7582864;19;20825;-73
2024/01/25 08:54:43;;;;;;;24.45;4.03;;;8.20;99.90;;;;;;7593408;19;20550;-76
2024/01/25 08:57:17;;;;;;;21.10;4.63;;;8.30;99.90;;;;;;7583087;19;20106;-72
2024/01/25 08:59:49;;;;;;;25.00;4.53;;;8.40;99.90;;;;;;7582788;19;20014;-73
2024/01/25 09:02:26;;;;;;;17.50;4.00;;;8.50;99.90;;;;;;7584530;19;20018;-73
2024/01/25 09:04:59;;;;;;;20.60;4.03;;;8.60;99.90;;;;;;7587827;19;20018;-73
2024/01/25 09:07:31;;;;;;;27.40;5.00;;;8.60;99.90;;;;;;7590688;19;20022;-72
2024/01/25 09:10:04;;;;;;;17.85;3.47;;;8.70;99.90;;;;;;7584778;19;20048;-73
2024/01/25 09:12:39;;;;;;;27.02;4.00;;;8.60;99.90;;;;;;7581425;19;20098;-74
2024/01/25 09:15:12;;;;;;;20.83;4.28;;;8.60;99.90;;;;;;7579949;19;20006;-72
2024/01/25 09:17:45;;;;;;;24.47;4.33;;;8.60;99.90;;;;;;7585137;19;20762;-73
2024/01/25 09:20:18;;;;;;;25.63;4.32;;;8.60;99.90;;;;;;7580469;19;20307;-73
2024/01/25 09:22:53;;;;;;;19.65;4.15;;;8.60;99.90;;;;;;7592551;19;20014;-73
2024/01/25 09:25:26;;;;;;;22.17;4.10;;;8.70;99.90;;;;;;7576890;19;20030;-73
2024/01/25 09:27:58;;;;;;;25.55;4.07;;;8.70;99.90;;;;;;7575814;19;20527;-73
2024/01/25 09:30:31;;;;;;;28.50;5.10;;;8.70;99.90;;;;;;7580115;19;20811;-74
2024/01/25 09:33:04;;;;;;;25.87;4.93;;;8.60;99.90;;;;;;7591466;19;20022;-73
2024/01/25 09:35:37;;;;;;;22.27;4.35;;;8.70;99.90;;;;;;7592940;19;20014;-74
2024/01/25 09:38:09;;;;;;;19.20;3.67;;;8.70;99.90;;;;;;7578843;19;20025;-73
2024/01/25 09:40:42;;;;;;;23.50;3.83;;;8.60;99.90;;;;;;7578097;19;20014;-73
2024/01/25 09:43:14;;;;;;;25.42;4.40;;;8.70;99.90;;;;;;7584204;19;20341;-73
2024/01/25 09:45:53;;;;;;;25.67;3.55;;;8.60;99.90;;;;;;7584195;19;20022;-73
2024/01/25 09:48:26;;;;;;;23.17;4.13;;;8.60;99.90;;;;;;7584573;19;20098;-74
2024/01/25 09:51:00;;;;;;;19.17;4.72;;;8.70;99.90;;;;;;7583087;19;20019;-73
2024/01/25 09:53:33;;;;;;;19.92;4.85;;;8.60;99.90;;;;;;7580255;19;20472;-72
2024/01/25 09:56:07;;;;;;;;;;;8.70;99.90;;;;;;7596299;19;20056;-72
2024/01/25 09:58:42;;;;;;;22.13;4.90;;;8.80;99.90;;;;;;7584642;19;19922;-72
2024/01/25 10:01:15;;;;;;;31.88;5.18;;;8.90;99.90;;;;;;7575496;19;20022;-76
2024/01/25 10:03:48;;;;;;;26.35;4.30;;;8.90;99.90;;;;;;7590910;19;20033;-77
2024/01/25 10:06:21;;;;;;;22.90;4.43;;;8.90;99.90;;;;;;7581213;19;20631;-77
2024/01/25 10:08:54;;;;;;;24.45;4.88;;;8.90;99.90;;;;;;7585024;19;20082;-74
2024/01/25 10:11:29;;;;;;;26.83;5.03;;;8.80;99.90;;;;;;7583844;19;20022;-75
2024/01/25 10:14:04;;;;;;;21.02;3.97;;;8.80;99.90;;;;;;7576114;19;20017;-74
2024/01/25 14:20:30;;;;;;;12.68;2.50;;;9.50;99.90;;;;;;7408161;19;3677481;-76
2024/01/25 14:23:03;;;;;;;18.20;2.90;;;9.60;99.90;;;;;;7645428;19;20050;-78
2024/01/25 14:25:35;;;;;;;16.77;2.60;;;9.70;99.90;;;;;;7638419;19;20842;-76
2024/01/25 14:28:08;;;;;;;12.13;2.80;;;9.70;99.90;;;;;;7619029;19;20033;-76
2024/01/25 14:30:42;;;;;;;10.70;2.97;;;9.60;99.90;;;;;;7629807;19;20017;-76
2024/01/25 14:33:15;;;;;;;11.60;2.70;;;9.80;99.90;;;;;;7624596;19;20014;-77
2024/01/25 14:35:48;;;;;;;12.82;3.78;;;9.90;99.90;;;;;;7628050;19;20251;-76
2024/01/25 14:38:20;;;;;;;11.82;2.88;;;10.00;99.90;;;;;;7618352;19;20022;-77
2024/01/25 14:40:52;;;;;;;8.82;2.17;;;10.00;99.90;;;;;;7626200;19;20614;-76
2024/01/25 14:43:31;;;;;;;12.52;3.00;;;10.00;99.90;;;;;;7630809;19;20026;-76
2024/01/25 14:46:05;;;;;;;9.52;2.25;;;10.10;99.90;;;;;;7627376;19;20018;-77
2024/01/25 14:48:37;;;;;;;10.98;2.97;;;10.10;99.90;;;;;;7643034;19;20620;-77
2024/01/25 14:51:10;;;;;;;13.05;2.72;;;10.10;99.90;;;;;;7638292;19;20047;-77
2024/01/25 14:53:43;;;;;;;9.63;2.60;;;10.20;99.90;;;;;;7625929;19;20027;-78
2024/01/25 14:56:16;;;;;;;11.57;2.70;;;10.30;99.90;;;;;;7625270;19;20249;-77
2024/01/25 14:58:49;;;;;;;23.08;5.72;;;10.20;99.90;;;;;;7648178;19;20526;-76
2024/01/25 15:01:27;;;;;;;17.50;3.47;;;10.20;99.90;;;;;;7660399;19;21041;-79
2024/01/25 15:04:01;;;;;;;15.25;2.90;;;10.20;99.90;;;;;;7617108;19;20014;-78
2024/01/25 15:06:33;;;;;;;18.95;4.78;;;10.10;99.90;;;;;;7608321;19;20014;-78
2024/01/25 15:09:07;;;;;;;;;;;10.00;99.90;;;;;;7625118;19;20037;-79
2024/01/25 15:11:39;;;;;;;12.18;3.90;;;9.90;99.90;;;;;;7599438;19;20380;-76
2024/01/25 15:14:13;;;;;;;8.63;3.15;;;9.90;99.90;;;;;;7617953;19;20010;-77
2024/01/25 15:16:45;;;;;;;15.13;4.55;;;9.80;99.90;;;;;;7621509;19;20622;-78
2024/01/25 15:19:18;;;;;;;14.23;4.03;;;9.80;99.90;;;;;;7619754;19;20018;-77
2024/01/25 15:21:50;;;;;;;12.27;5.30;;;9.70;99.90;;;;;;7645331;19;20053;-77
2024/01/25 15:24:22;;;;;;;11.55;4.38;;;9.70;99.90;;;;;;7623388;19;20081;-78
2024/01/25 15:26:55;;;;;;;15.90;5.75;;;9.70;99.90;;;;;;7639587;19;20029;-78
2024/01/25 15:29:27;;;;;;;13.77;3.55;;;9.60;99.90;;;;;;7637595;19;20006;-77
2024/01/25 15:32:00;;;;;;;18.13;4.55;;;9.60;99.90;;;;;;7607275;19;20071;-77
2024/01/25 15:34:32;;;;;;;15.23;3.17;;;9.50;99.90;;;;;;7618885;19;20014;-76
2024/01/25 15:37:05;;;;;;;13.45;3.95;;;9.40;99.90;;;;;;7598782;19;21667;-76
2024/01/25 15:39:39;;;;;;;11.43;2.88;;;9.30;99.90;;;;;;7609117;19;20023;-77
2024/01/25 15:42:12;;;;;;;16.67;3.45;;;9.30;99.90;;;;;;7615147;19;20511;-78
2024/01/25 15:44:44;;;;;;;13.70;3.65;;;9.20;99.90;;;;;;7622770;19;20016;-79
2024/01/25 15:47:16;;;;;;;12.07;2.95;;;9.20;99.90;;;;;;7618078;19;21707;-79
2024/01/25 15:49:48;;;;;;;14.13;3.28;;;9.20;99.90;;;;;;7602860;19;20018;-75
2024/01/25 15:52:21;;;;;;;13.02;3.70;;;9.10;99.90;;;;;;7598413;19;20018;-76
2024/01/25 15:54:53;;;;;;;10.43;3.10;;;9.10;99.90;;;;;;7617523;19;20010;-77
2024/01/25 15:57:26;;;;;;;16.70;3.35;;;9.00;99.90;;;;;;7612456;19;20558;-77
2024/01/25 16:00:00;;;;;;;8.93;2.55;;;9.00;99.90;;;;;;7620553;19;20022;-77
2024/01/25 16:02:32;;;;;;;13.32;3.38;;;9.00;99.90;;;;;;7627251;19;20015;-78
2024/01/25 16:05:04;;;;;;;13.95;4.40;;;8.90;99.90;;;;;;7628606;19;20019;-79
2024/01/25 16:07:37;;;;;;;19.00;3.70;;;8.90;99.90;;;;;;7630293;19;20752;-77
2024/01/25 16:10:18;;;;;;;13.43;4.57;;;8.80;99.90;;;;;;7626136;19;20321;-78
2024/01/25 16:12:51;;;;;;;22.35;4.55;;;8.80;99.90;;;;;;7627939;19;20010;-77
2024/01/25 16:15:24;;;;;;;20.50;6.10;;;8.80;99.90;;;;;;7630130;19;20010;-76
2024/01/25 16:17:57;;;;;;;30.23;7.13;;;8.80;99.90;;;;;;7623615;19;20879;-77
2024/01/25 16:20:29;;;;;;;21.85;6.40;;;8.70;99.90;;;;;;7619421;19;20426;-76
2024/01/25 16:23:02;;;;;;;20.05;6.13;;;8.70;99.90;;;;;;7631529;19;20022;-76
2024/01/25 16:25:34;;;;;;;20.57;5.83;;;8.70;99.90;;;;;;7631706;19;20011;-77
2024/01/25 16:28:07;;;;;;;14.15;5.47;;;8.70;99.90;;;;;;7627533;19;20305;-77
2024/01/25 16:30:39;;;;;;;14.43;5.53;;;8.70;99.90;;;;;;7625610;19;20019;-76
2024/01/25 16:33:13;;;;;;;17.65;6.43;;;8.70;99.90;;;;;;7635145;19;20330;-77
2024/01/25 16:35:46;;;;;;;19.83;5.93;;;8.70;99.90;;;;;;7636389;19;20015;-76
2024/01/25 16:38:19;;;;;;;17.48;6.20;;;8.80;99.90;;;;;;7634385;19;20276;-76
2024/01/25 16:40:54;;;;;;;23.25;6.18;;;8.80;99.90;;;;;;7628960;19;20017;-77
2024/01/25 16:43:26;;;;;;;19.50;6.07;;;8.80;99.90;;;;;;7631784;19;20760;-77
2024/01/25 16:45:58;;;;;;;19.35;6.22;;;8.70;99.90;;;;;;7106713;19;10001146;-78
2024/01/25 16:48:31;;;;;;;15.85;6.53;;;8.60;99.90;;;;;;7628038;19;20018;-77
2024/01/25 16:51:04;;;;;;;16.02;6.32;;;8.60;99.90;;;;;;7617274;19;20071;-77
2024/01/25 16:53:36;;;;;;;13.93;6.10;;;8.50;99.90;;;;;;7629247;19;20042;-78
2024/01/25 16:56:08;;;;;;;21.58;6.97;;;8.40;99.90;;;;;;7624937;19;20023;-78
2024/01/25 16:58:40;;;;;;;21.85;6.65;;;8.40;99.90;;;;;;7622298;19;20018;-78
2024/01/25 17:01:12;;;;;;;20.55;5.95;;;8.40;99.90;;;;;;7612715;19;20006;-78
2024/01/25 17:03:45;;;;;;;16.90;5.93;;;8.30;99.90;;;;;;7607486;19;20010;-77
2024/01/25 17:06:17;;;;;;;19.42;7.15;;;8.30;99.90;;;;;;7624777;19;20022;-77
2024/01/25 17:08:49;;;;;;;20.17;6.38;;;8.20;99.90;;;;;;7627848;19;20011;-77
2024/01/25 17:11:22;;;;;;;21.92;6.90;;;8.20;99.90;;;;;;7629761;19;20018;-78
2024/01/25 17:13:54;;;;;;;29.23;7.68;;;8.20;99.90;;;;;;7626244;19;20018;-76
2024/01/25 17:16:27;;;;;;;19.33;7.32;;;8.20;99.90;;;;;;7623125;19;20029;-79
2024/01/25 17:18:59;;;;;;;28.85;7.75;;;8.20;99.90;;;;;;7618580;19;20011;-77
2024/01/25 17:21:32;;;;;;;19.30;8.77;;;8.10;99.90;;;;;;7631314;19;20014;-77
2024/01/25 17:24:06;;;;;;;19.67;9.45;;;8.10;99.90;;;;;;7622637;19;20496;-76
2024/01/25 17:26:39;;;;;;;26.75;8.95;;;8.00;99.90;;;;;;7622561;19;20025;-78
2024/01/25 17:29:11;;;;;;;20.23;8.48;;;8.00;99.90;;;;;;7614855;19;20038;-78
2024/01/25 17:31:43;;;;;;;22.45;8.98;;;8.10;99.90;;;;;;7628846;19;20010;-77
2024/01/25 17:34:15;;;;;;;19.58;7.72;;;8.10;99.90;;;;;;7621598;19;20438;-77
2024/01/25 17:36:53;;;;;;;12.88;6.70;;;8.10;99.90;;;;;;7626478;19;20010;-78
2024/01/25 17:39:26;;;;;;;17.52;6.97;;;8.10;99.90;;;;;;7613366;19;20482;-76
2024/01/25 17:42:01;;;;;;;14.77;6.80;;;8.10;99.90;;;;;;7625944;19;20010;-77
2024/01/25 17:44:33;;;;;;;12.68;6.35;;;8.20;99.90;;;;;;7619183;19;20014;-78
2024/01/25 17:47:06;;;;;;;14.20;6.43;;;8.10;99.90;;;;;;7615817;19;20010;-76
2024/01/25 17:49:38;;;;;;;15.20;6.47;;;8.10;99.90;;;;;;7609899;19;20031;-77
2024/01/25 17:52:11;;;;;;;13.35;7.03;;;8.00;99.90;;;;;;7620274;19;20068;-78
2024/01/25 17:54:44;;;;;;;;;;;8.00;99.90;;;;;;7624569;19;20055;-78
2024/01/25 17:57:17;;;;;;;11.13;5.15;;;8.10;99.90;;;;;;7615110;19;20348;-78
2024/01/25 17:59:49;;;;;;;8.52;5.18;;;8.20;99.90;;;;;;7625559;19;20385;-80
2024/01/25 18:02:21;;;;;;;9.48;5.05;;;8.10;99.90;;;;;;7615614;19;20830;-78
2024/01/25 18:04:53;;;;;;;11.00;4.95;;;8.10;99.90;;;;;;7625311;19;20030;-77
2024/01/25 18:07:26;;;;;;;15.20;7.63;;;8.20;99.90;;;;;;7626025;19;20010;-77
2024/01/25 18:09:58;;;;;;;13.25;6.88;;;8.10;99.90;;;;;;7628693;19;20396;-77
2024/01/25 18:12:32;;;;;;;15.82;8.40;;;8.10;99.90;;;;;;7623146;19;20023;-79
2024/01/25 18:15:06;;;;;;;15.60;9.02;;;8.10;99.90;;;;;;7622280;19;20030;-77
2024/01/25 18:17:39;;;;;;;14.15;8.27;;;8.10;99.90;;;;;;7632414;19;20022;-79
2024/01/25 18:20:12;;;;;;;21.13;9.70;;;8.10;99.90;;;;;;7626408;19;20018;-78
2024/01/25 18:22:44;;;;;;;12.87;6.57;;;8.10;99.90;;;;;;7631326;19;20014;-78
2024/01/25 18:25:21;;;;;;;19.38;8.50;;;8.20;99.90;;;;;;7620573;19;20689;-77
2024/01/25 18:27:56;;;;;;;28.52;11.10;;;8.10;99.90;;;;;;7613040;19;20033;-78
2024/01/25 18:30:28;;;;;;;22.98;10.65;;;8.20;99.90;;;;;;7615625;19;20023;-78
2024/01/25 18:33:01;;;;;;;20.20;9.90;;;8.10;99.90;;;;;;7622037;19;20023;-77
2024/01/25 18:35:34;;;;;;;13.55;7.75;;;8.00;99.90;;;;;;7618380;19;20744;-76
2024/01/25 18:38:07;;;;;;;11.60;5.78;;;8.00;99.90;;;;;;7616577;19;20451;-76
2024/01/25 18:40:39;;;;;;;8.60;5.35;;;8.00;99.90;;;;;;7623161;19;20011;-79
2024/01/25 18:43:12;;;;;;;9.80;5.15;;;8.10;99.90;;;;;;7618702;19;20014;-79
2024/01/25 18:45:46;;;;;;;8.70;3.90;;;8.00;99.90;;;;;;7618164;19;20006;-78
2024/01/25 18:48:19;;;;;;;8.68;4.78;;;8.10;99.90;;;;;;7613455;19;20442;-77
2024/01/25 18:50:52;;;;;;;8.15;4.60;;;8.10;99.90;;;;;;7621474;19;20074;-78
2024/01/25 18:53:31;;;;;;;6.53;4.13;;;8.10;99.90;;;;;;7618898;19;20013;-78
2024/01/25 18:56:04;;;;;;;7.70;4.93;;;8.10;99.90;;;;;;7621875;19;20060;-78
2024/01/25 18:58:40;;;;;;;8.10;4.15;;;8.00;99.90;;;;;;7623156;19;20019;-79
2024/01/25 19:01:12;;;;;;;8.03;4.20;;;8.00;99.90;;;;;;7615954;19;20018;-77
2024/01/25 19:03:46;;;;;;;;;;;8.10;99.90;;;;;;7615198;19;20029;-78
2024/01/25 19:06:20;;;;;;;6.35;3.47;;;8.10;99.90;;;;;;7628963;19;20312;-78
2024/01/25 19:08:52;;;;;;;10.13;4.30;;;8.20;99.90;;;;;;7627823;19;20026;-78
2024/01/25 19:11:26;;;;;;;6.65;4.50;;;8.20;99.90;;;;;;7631541;19;20055;-77
2024/01/25 19:13:58;;;;;;;10.45;5.03;;;8.10;99.90;;;;;;7622102;19;20021;-76
2024/01/25 19:16:33;;;;;;;12.85;7.88;;;8.00;99.90;;;;;;7632568;19;20710;-77
2024/01/25 19:19:06;;;;;;;13.10;8.13;;;8.00;99.90;;;;;;7626709;19;20019;-79
2024/01/25 19:21:38;;;;;;;14.35;8.35;;;8.00;99.90;;;;;;7628201;19;20020;-79
2024/01/25 19:24:16;;;;;;;11.75;7.65;;;8.00;99.90;;;;;;7595117;19;20367;-79
2024/01/25 19:26:49;;;;;;;13.63;7.55;;;8.00;99.90;;;;;;7598765;19;20014;-77
2024/01/25 19:29:22;;;;;;;15.90;7.00;;;8.00;99.90;;;;;;7615992;19;20030;-78
2024/01/25 19:31:54;;;;;;;15.88;8.63;;;8.00;99.90;;;;;;7608942;19;20022;-77
2024/01/25 19:34:28;;;;;;;10.13;5.53;;;8.00;99.90;;;;;;7598305;19;20018;-80
2024/01/25 19:37:01;;;;;;;8.75;5.75;;;8.00;99.90;;;;;;7571922;19;20397;-78
2024/01/25 19:39:34;;;;;;;6.90;4.00;;;8.00;99.90;;;;;;7583426;19;20470;-77
2024/01/25 19:42:08;;;;;;;6.97;3.65;;;8.00;99.90;;;;;;7573071;19;20634;-77
2024/01/25 19:44:42;;;;;;;5.85;3.85;;;8.00;99.90;;;;;;7582392;19;20014;-76
2024/01/25 19:47:19;;;;;;;7.75;3.80;;;8.00;99.90;;;;;;7584755;19;20682;-76
2024/01/25 19:49:52;;;;;;;6.78;4.13;;;8.00;99.90;;;;;;7538339;19;21048;-74
2024/01/25 19:52:24;;;;;;;6.53;3.40;;;7.90;99.90;;;;;;7539867;19;20736;-74
2024/01/25 19:54:57;;;;;;;6.80;3.92;;;7.90;99.90;;;;;;7534527;19;20026;-75
2024/01/25 19:57:31;;;;;;;5.28;3.53;;;8.00;99.90;;;;;;7536583;19;20371;-74
2024/01/25 20:00:05;;;;;;;5.50;3.75;;;8.00;99.90;;;;;;7530663;19;20060;-75
2024/01/25 20:02:38;;;;;;;5.65;3.95;;;8.00;99.90;;;;;;7508937;19;21730;-75
2024/01/25 20:05:11;;;;;;;6.63;4.05;;;7.90;99.90;;;;;;7565575;19;20113;-76
2024/01/25 20:07:44;;;;;;;7.05;4.53;;;7.90;99.90;;;;;;7558098;19;20471;-76
2024/01/25 20:10:17;;;;;;;6.45;4.20;;;7.90;99.90;;;;;;7546068;19;20034;-75
2024/01/25 20:12:49;;;;;;;7.22;3.90;;;7.90;99.90;;;;;;7538862;19;21132;-74
2024/01/25 20:15:23;;;;;;;5.22;4.03;;;7.90;99.90;;;;;;7552325;19;20666;-74
2024/01/25 20:17:55;;;;;;;9.63;5.15;;;7.90;99.90;;;;;;7545469;19;20722;-77
